createdAt,value
2022-08-29T00:02:06.628Z,2.17
2022-08-29T00:04:35.939Z,2.38
2022-08-29T00:07:05.307Z,2.00
2022-08-29T00:09:32.719Z,2.28
2022-08-29T00:12:00.154Z,2.28
2022-08-29T00:14:27.770Z,1.92
2022-08-29T00:16:55.256Z,1.70
2022-08-29T00:19:22.688Z,1.52
2022-08-29T00:21:50.119Z,1.67
2022-08-29T00:24:18.844Z,1.73
2022-08-29T00:26:46.408Z,1.83
2022-08-29T00:29:13.811Z,1.90
2022-08-29T00:31:41.250Z,1.90
2022-08-29T00:34:08.664Z,1.95
2022-08-29T00:36:36.093Z,1.90
2022-08-29T00:39:03.899Z,2.00
2022-08-29T00:41:37.999Z,2.42
2022-08-29T00:44:06.930Z,2.30
2022-08-29T00:46:55.021Z,2.20
2022-08-29T00:49:33.017Z,2.65
2022-08-29T00:52:04.423Z,2.05
2022-08-29T00:54:32.975Z,2.15
2022-08-29T00:57:01.836Z,2.20
2022-08-29T00:59:34.007Z,2.20
2022-08-29T01:02:01.510Z,2.05
2022-08-29T01:04:29.977Z,2.03
2022-08-29T01:06:57.867Z,2.17
2022-08-29T01:09:27.118Z,2.03
2022-08-29T01:12:12.668Z,2.00
2022-08-29T01:14:43.759Z,1.80
2022-08-29T01:17:11.583Z,1.88
2022-08-29T01:19:46.430Z,1.80
2022-08-29T01:22:34.815Z,1.92
2022-08-29T01:25:07.443Z,1.70
2022-08-29T01:27:40.028Z,1.70
2022-08-29T01:30:09.771Z,1.85
2022-08-29T01:32:37.206Z,1.70
2022-08-29T01:35:05.760Z,1.70
2022-08-29T01:37:35.125Z,1.70
2022-08-29T01:40:05.979Z,1.60
2022-08-29T01:42:37.236Z,1.50
2022-08-29T01:45:09.874Z,1.45
2022-08-29T01:47:39.152Z,1.40
2022-08-29T01:50:10.828Z,1.75
2022-08-29T01:52:38.247Z,1.75
2022-08-29T01:55:07.923Z,1.80
2022-08-29T01:57:37.782Z,1.80
2022-08-29T02:00:08.636Z,1.60
2022-08-29T02:02:36.793Z,1.80
2022-08-29T02:05:05.634Z,1.70
2022-08-29T02:07:33.124Z,1.70
2022-08-29T02:10:00.600Z,1.58
2022-08-29T02:12:31.607Z,1.70
2022-08-29T02:14:59.088Z,1.80
2022-08-29T02:17:26.485Z,1.75
2022-08-29T02:19:53.920Z,1.80
2022-08-29T02:22:21.630Z,1.67
2022-08-29T02:24:49.008Z,1.67
2022-08-29T02:27:16.499Z,1.48
2022-08-29T02:29:45.219Z,1.60
2022-08-29T02:32:15.460Z,1.40
2022-08-29T02:34:48.487Z,1.42
2022-08-29T02:37:16.997Z,1.40
2022-08-29T02:39:44.431Z,1.48
2022-08-29T02:42:11.833Z,1.35
2022-08-29T02:44:39.215Z,1.52
2022-08-29T02:47:09.243Z,1.30
2022-08-29T02:49:36.813Z,1.27
2022-08-29T02:52:06.533Z,1.20
2022-08-29T02:54:34.251Z,1.20
2022-08-29T02:57:01.659Z,1.15
2022-08-29T02:59:29.038Z,1.20
2022-08-29T03:01:56.477Z,1.25
2022-08-29T03:04:25.239Z,1.30
2022-08-29T03:06:53.436Z,1.10
2022-08-29T03:09:20.837Z,1.17
2022-08-29T03:11:48.227Z,1.10
2022-08-29T03:14:16.021Z,1.10
2022-08-29T03:16:43.496Z,1.17
2022-08-29T03:19:10.913Z,1.05
2022-08-29T03:21:39.743Z,1.08
2022-08-29T03:24:07.235Z,1.15
2022-08-29T03:26:34.656Z,1.23
2022-08-29T03:29:02.480Z,1.40
2022-08-29T03:31:30.117Z,1.45
2022-08-29T03:33:57.684Z,1.35
2022-08-29T03:36:26.337Z,1.30
2022-08-29T03:38:55.276Z,1.30
2022-08-29T03:41:23.864Z,1.25
2022-08-29T03:43:51.793Z,1.15
2022-08-29T03:46:19.278Z,1.88
2022-08-29T03:48:46.763Z,1.50
2022-08-29T03:51:14.206Z,1.65
2022-08-29T03:53:41.701Z,1.65
2022-08-29T03:56:10.883Z,1.42
2022-08-29T03:58:50.429Z,1.30
2022-08-29T04:01:22.271Z,1.23
2022-08-29T04:03:49.752Z,1.10
2022-08-29T04:06:17.416Z,1.13
2022-08-29T04:08:47.206Z,1.10
2022-08-29T04:11:18.093Z,1.23
2022-08-29T04:13:45.929Z,1.27
2022-08-29T04:16:15.023Z,1.25
2022-08-29T04:18:42.871Z,1.23
2022-08-29T04:21:10.947Z,1.25
2022-08-29T04:23:40.089Z,1.42
2022-08-29T04:26:35.479Z,1.17
2022-08-29T04:29:04.505Z,1.13
2022-08-29T04:31:32.070Z,1.40
2022-08-29T04:33:59.541Z,1.45
2022-08-29T04:36:28.107Z,1.50
2022-08-29T04:38:55.573Z,1.58
2022-08-29T04:41:23.059Z,1.50
2022-08-29T04:43:50.464Z,1.60
2022-08-29T04:46:24.690Z,1.55
2022-08-29T04:48:52.472Z,1.48
2022-08-29T04:51:20.442Z,1.60
2022-08-29T04:53:48.151Z,1.30
2022-08-29T04:56:15.691Z,1.55
2022-08-29T04:58:44.933Z,1.25
2022-08-29T05:01:15.773Z,1.27
2022-08-29T05:03:45.031Z,1.38
2022-08-29T05:06:14.488Z,1.13
2022-08-29T05:08:43.938Z,1.23
2022-08-29T05:11:15.394Z,1.20
2022-08-29T05:13:52.508Z,1.23
2022-08-29T05:16:20.008Z,1.40
2022-08-29T05:18:48.829Z,1.45
2022-08-29T05:21:25.806Z,1.73
2022-08-29T05:23:53.817Z,1.65
2022-08-29T05:26:21.305Z,1.67
2022-08-29T05:28:49.675Z,1.50
2022-08-29T05:31:17.173Z,1.65
2022-08-29T05:33:44.605Z,1.42
2022-08-29T05:36:13.365Z,1.40
2022-08-29T05:38:40.870Z,1.23
2022-08-29T05:41:08.387Z,1.60
2022-08-29T05:43:36.469Z,1.10
2022-08-29T05:46:06.240Z,1.30
2022-08-29T05:48:34.928Z,1.67
2022-08-29T05:51:02.923Z,1.38
2022-08-29T05:53:31.954Z,1.38
2022-08-29T05:55:59.340Z,1.52
2022-08-29T05:58:28.226Z,1.15
2022-08-29T06:00:55.624Z,1.27
2022-08-29T06:03:23.167Z,1.13
2022-08-29T06:05:52.557Z,1.30
2022-08-29T06:08:21.013Z,1.52
2022-08-29T06:10:49.791Z,1.73
2022-08-29T06:13:17.197Z,1.67
2022-08-29T06:15:45.926Z,1.75
2022-08-29T06:18:13.906Z,1.67
2022-08-29T06:20:42.005Z,1.60
2022-08-29T06:23:09.453Z,2.00
2022-08-29T06:25:40.074Z,2.00
2022-08-29T06:28:09.310Z,1.95
2022-08-29T06:30:36.855Z,2.13
2022-08-29T06:33:04.409Z,2.55
2022-08-29T06:35:31.844Z,2.63
2022-08-29T06:37:59.256Z,2.35
2022-08-29T06:40:27.217Z,1.60
2022-08-29T06:42:54.773Z,1.60
2022-08-29T06:45:23.495Z,2.10
2022-08-29T06:47:50.949Z,2.95
2022-08-29T06:50:19.117Z,5.03
2022-08-29T06:52:47.122Z,2.67
2022-08-29T06:55:15.256Z,2.20
2022-08-29T06:57:45.469Z,2.10
2022-08-29T07:00:22.508Z,1.90
2022-08-29T07:02:52.888Z,1.70
2022-08-29T07:05:21.270Z,1.15
2022-08-29T07:07:48.753Z,1.77
2022-08-29T07:10:20.108Z,2.20
2022-08-29T07:12:49.852Z,2.10
2022-08-29T07:15:17.436Z,2.35
2022-08-29T07:17:44.837Z,2.03
2022-08-29T07:20:14.452Z,1.77
2022-08-29T07:22:42.219Z,1.88
2022-08-29T07:25:12.572Z,2.22
2022-08-29T07:27:43.264Z,2.30
2022-08-29T07:30:12.261Z,2.42
2022-08-29T07:32:44.997Z,2.38
2022-08-29T07:35:18.597Z,2.30
2022-08-29T07:37:57.568Z,1.80
2022-08-29T07:40:25.050Z,1.90
2022-08-29T07:42:52.552Z,1.33
2022-08-29T07:45:20.346Z,2.00
2022-08-29T07:47:47.757Z,1.63
2022-08-29T07:50:17.052Z,1.52
2022-08-29T07:52:44.477Z,1.35
2022-08-29T07:55:11.991Z,1.55
2022-08-29T07:57:39.607Z,1.67
2022-08-29T08:00:09.947Z,1.58
2022-08-29T08:02:37.435Z,1.45
2022-08-29T08:05:06.773Z,2.60
2022-08-29T08:07:36.617Z,1.77
2022-08-29T08:10:08.860Z,1.90
2022-08-29T08:12:36.287Z,1.77
2022-08-29T08:15:04.329Z,2.58
2022-08-29T08:17:31.710Z,2.63
2022-08-29T08:19:59.101Z,2.08
2022-08-29T08:22:26.538Z,2.65
2022-08-29T08:24:55.251Z,2.75
2022-08-29T08:27:22.666Z,2.58
2022-08-29T08:29:50.063Z,3.72
2022-08-29T08:32:18.083Z,3.00
2022-08-29T08:34:45.602Z,2.70
2022-08-29T08:37:13.848Z,3.15
2022-08-29T08:39:46.898Z,2.47
2022-08-29T08:42:26.475Z,5.20
2022-08-29T08:45:04.113Z,6.95
2022-08-29T08:47:36.111Z,5.20
2022-08-29T08:50:10.035Z,3.38
2022-08-29T08:52:44.902Z,3.42
2022-08-29T08:55:21.354Z,2.92
2022-08-29T08:58:00.696Z,2.38
2022-08-29T09:00:36.088Z,2.33
2022-08-29T09:03:14.182Z,2.70
2022-08-29T09:05:56.152Z,2.70
2022-08-29T09:08:31.511Z,2.35
2022-08-29T09:11:03.967Z,2.35
2022-08-29T09:13:46.609Z,1.83
2022-08-29T09:16:25.068Z,2.42
2022-08-29T09:18:54.364Z,1.83
2022-08-29T09:24:16.794Z,1.20
2022-08-29T09:26:44.354Z,1.10
2022-08-29T09:29:14.018Z,1.23
2022-08-29T09:31:41.956Z,1.20
2022-08-29T09:34:11.867Z,1.60
2022-08-29T09:36:47.353Z,1.20
2022-08-29T09:39:27.562Z,1.20
2022-08-29T09:41:58.905Z,1.15
2022-08-29T09:44:29.490Z,1.10
2022-08-29T09:47:11.896Z,1.10
2022-08-29T09:49:41.467Z,1.10
2022-08-29T09:52:13.054Z,1.13
2022-08-29T09:54:41.353Z,1.77
2022-08-29T09:57:22.081Z,1.42
2022-08-29T10:00:06.445Z,2.47
2022-08-29T10:02:45.605Z,1.92
2022-08-29T10:05:29.701Z,2.00
2022-08-29T10:07:57.948Z,1.60
2022-08-29T10:10:27.513Z,1.60
2022-08-29T10:13:00.423Z,1.67
2022-08-29T10:15:50.024Z,2.67
2022-08-29T10:18:28.547Z,2.65
2022-08-29T10:21:06.027Z,2.72
2022-08-29T10:23:42.794Z,2.55
2022-08-29T10:26:26.040Z,1.90
2022-08-29T10:29:01.107Z,1.80
2022-08-29T10:31:36.426Z,1.85
2022-08-29T10:34:16.678Z,1.70
2022-08-29T10:36:51.294Z,1.58
2022-08-29T10:39:30.005Z,1.05
2022-08-29T10:42:00.743Z,1.35
2022-08-29T10:44:36.133Z,0.90
2022-08-29T10:47:20.208Z,0.80
2022-08-29T10:50:02.286Z,1.25
2022-08-29T10:52:36.531Z,1.27
2022-08-29T10:55:12.907Z,0.85
2022-08-29T10:57:48.108Z,1.27
2022-08-29T11:00:19.877Z,0.95
2022-08-29T11:02:56.433Z,1.08
2022-08-29T11:05:26.947Z,2.55
2022-08-29T11:08:02.183Z,3.30
2022-08-29T11:10:38.605Z,3.67
2022-08-29T11:13:11.255Z,3.75
2022-08-29T11:15:43.388Z,3.58
2022-08-29T11:18:22.570Z,3.50
2022-08-29T11:20:56.108Z,3.50
2022-08-29T11:23:31.299Z,2.50
2022-08-29T11:26:03.023Z,2.33
2022-08-29T11:28:39.751Z,2.97
2022-08-29T11:31:16.149Z,2.50
2022-08-29T11:33:51.720Z,1.90
2022-08-29T11:36:43.582Z,1.05
2022-08-29T11:39:34.338Z,1.70
2022-08-29T11:42:06.356Z,2.00
2022-08-29T11:44:36.795Z,1.63
2022-08-29T11:47:40.597Z,0.90
2022-08-29T11:50:28.481Z,1.00
2022-08-29T11:52:59.017Z,1.20
2022-08-29T11:55:34.380Z,0.95
2022-08-29T11:58:11.780Z,1.00
2022-08-29T12:00:45.701Z,1.45
2022-08-29T12:03:53.412Z,1.90
2022-08-29T12:06:43.230Z,1.40
2022-08-29T12:09:26.549Z,0.93
2022-08-29T12:12:16.417Z,0.80
2022-08-29T12:14:46.714Z,0.80
2022-08-29T12:18:01.495Z,0.80
2022-08-29T12:23:21.202Z,0.70
2022-08-29T12:26:21.014Z,0.80
2022-08-29T12:28:46.640Z,0.73
2022-08-29T12:31:38.252Z,0.80
2022-08-29T12:34:28.155Z,1.00
2022-08-29T12:37:21.699Z,0.90
2022-08-29T12:40:01.881Z,0.75
2022-08-29T12:42:41.620Z,0.95
2022-08-29T12:45:13.887Z,1.10
2022-08-29T12:47:47.145Z,1.38
2022-08-29T12:50:18.519Z,1.27
2022-08-29T12:52:59.707Z,1.33
2022-08-29T12:55:33.769Z,1.23
2022-08-29T12:58:01.664Z,1.00
2022-08-29T13:00:32.423Z,0.90
2022-08-29T13:03:02.747Z,0.80
2022-08-29T13:05:32.649Z,0.90
2022-08-29T13:08:02.185Z,0.82
2022-08-29T13:10:31.144Z,1.08
2022-08-29T13:13:07.636Z,1.13
2022-08-29T13:15:35.310Z,1.02
2022-08-29T13:18:03.286Z,0.88
2022-08-29T13:20:47.088Z,1.25
2022-08-29T13:23:19.769Z,0.95
2022-08-29T13:25:52.310Z,0.90
2022-08-29T13:28:28.305Z,0.85
2022-08-29T13:31:30.532Z,0.77
2022-08-29T13:34:14.881Z,0.75
2022-08-29T13:37:02.278Z,0.75
2022-08-29T13:39:45.739Z,0.80
2022-08-29T13:42:25.478Z,0.85
2022-08-29T13:45:13.904Z,0.80
2022-08-29T13:47:58.498Z,0.70
2022-08-29T13:50:26.728Z,0.90
2022-08-29T13:52:55.747Z,0.80
2022-08-29T13:55:23.420Z,0.88
2022-08-29T13:57:54.642Z,0.93
2022-08-29T14:00:35.256Z,0.75
2022-08-29T14:03:05.453Z,0.90
2022-08-29T14:05:33.210Z,0.90
2022-08-29T14:08:00.653Z,0.93
2022-08-29T14:10:28.072Z,1.08
2022-08-29T14:12:56.843Z,0.90
2022-08-29T14:15:24.279Z,0.93
2022-08-29T14:17:51.715Z,1.00
2022-08-29T14:20:20.302Z,1.00
2022-08-29T14:22:48.301Z,1.02
2022-08-29T14:25:19.572Z,0.93
2022-08-29T14:27:48.519Z,1.00
2022-08-29T14:30:19.964Z,1.02
2022-08-29T14:32:47.524Z,0.88
2022-08-29T14:35:25.774Z,1.00
2022-08-29T14:37:54.735Z,1.02
2022-08-29T14:40:22.504Z,1.10
2022-08-29T14:42:50.027Z,1.00
2022-08-29T14:45:19.024Z,2.33
2022-08-29T14:47:47.194Z,1.33
2022-08-29T14:50:16.515Z,1.40
2022-08-29T14:52:44.659Z,1.13
2022-08-29T14:55:13.296Z,1.00
2022-08-29T14:57:41.528Z,0.90
2022-08-29T15:00:12.951Z,1.08
2022-08-29T15:05:33.973Z,1.20
2022-08-29T15:08:06.206Z,1.05
2022-08-29T15:10:34.093Z,0.98
2022-08-29T15:13:01.848Z,1.02
2022-08-29T15:15:29.949Z,0.88
2022-08-29T15:18:00.934Z,1.10
2022-08-29T15:20:39.420Z,1.00
2022-08-29T15:23:09.047Z,0.93
2022-08-29T15:25:38.671Z,0.90
2022-08-29T15:28:13.228Z,0.90
2022-08-29T15:30:42.344Z,0.88
2022-08-29T15:33:11.110Z,0.90
2022-08-29T15:35:40.148Z,1.10
2022-08-29T15:38:08.282Z,1.00
2022-08-29T15:40:36.448Z,1.08
2022-08-29T15:43:04.329Z,0.88
2022-08-29T15:45:31.908Z,1.10
2022-08-29T15:48:00.754Z,1.00
2022-08-29T15:50:30.793Z,0.98
2022-08-29T15:52:58.256Z,1.10
2022-08-29T15:55:25.725Z,1.20
2022-08-29T15:57:57.202Z,1.05
2022-08-29T16:00:30.111Z,1.10
2022-08-29T16:02:58.868Z,1.00
2022-08-29T16:05:26.563Z,1.13
2022-08-29T16:07:55.272Z,1.20
2022-08-29T16:10:22.701Z,1.15
2022-08-29T16:12:50.144Z,1.20
2022-08-29T16:15:17.568Z,1.13
2022-08-29T16:17:45.027Z,1.40
2022-08-29T16:20:12.888Z,0.90
2022-08-29T16:22:41.437Z,1.08
2022-08-29T16:25:12.204Z,0.90
2022-08-29T16:27:39.600Z,0.90
2022-08-29T16:30:09.790Z,1.00
2022-08-29T16:32:37.477Z,1.05
2022-08-29T16:35:06.346Z,1.17
2022-08-29T16:37:34.363Z,1.02
2022-08-29T16:40:04.031Z,1.23
2022-08-29T16:42:34.036Z,1.17
2022-08-29T16:45:01.683Z,1.10
2022-08-29T16:47:29.085Z,1.27
2022-08-29T16:49:56.550Z,1.17
2022-08-29T16:52:23.940Z,1.13
2022-08-29T16:54:53.655Z,1.20
2022-08-29T16:57:21.437Z,1.30
2022-08-29T16:59:50.210Z,1.15
2022-08-29T17:02:17.701Z,1.13
2022-08-29T17:04:46.680Z,1.58
2022-08-29T17:07:14.280Z,1.17
2022-08-29T17:09:40.816Z,1.00
2022-08-29T17:12:08.240Z,1.13
2022-08-29T17:14:36.467Z,1.20
2022-08-29T17:17:05.516Z,1.20
2022-08-29T17:19:34.028Z,1.48
2022-08-29T17:22:01.552Z,1.30
2022-08-29T17:24:29.318Z,1.20
2022-08-29T17:26:56.940Z,1.27
2022-08-29T17:29:24.356Z,1.38
2022-08-29T17:31:51.809Z,1.30
2022-08-29T17:34:20.573Z,1.25
2022-08-29T17:36:49.639Z,1.20
2022-08-29T17:39:17.119Z,1.45
2022-08-29T17:41:50.239Z,1.40
2022-08-29T17:44:18.307Z,1.38
2022-08-29T17:46:46.236Z,1.27
2022-08-29T17:49:13.621Z,1.25
2022-08-29T17:51:42.417Z,1.45
2022-08-29T17:54:12.406Z,1.48
2022-08-29T17:56:44.832Z,1.67
2022-08-29T17:59:12.845Z,2.03
2022-08-29T18:01:40.625Z,1.75
2022-08-29T18:04:08.112Z,1.60
2022-08-29T18:06:35.654Z,1.20
2022-08-29T18:09:05.644Z,1.20
2022-08-29T18:11:33.617Z,1.50
2022-08-29T18:14:01.045Z,1.30
2022-08-29T18:16:28.526Z,1.17
2022-08-29T18:18:56.026Z,1.30
2022-08-29T18:21:23.776Z,1.40
2022-08-29T18:23:51.182Z,1.60
2022-08-29T18:26:20.184Z,1.73
2022-08-29T18:28:47.612Z,1.67
2022-08-29T18:31:18.462Z,1.92
2022-08-29T18:33:59.967Z,1.90
2022-08-29T18:36:28.928Z,1.90
2022-08-29T18:38:56.339Z,1.90
2022-08-29T18:41:25.143Z,1.98
2022-08-29T18:43:52.579Z,1.20
2022-08-29T18:46:20.362Z,1.30
2022-08-29T18:48:47.860Z,1.42
2022-08-29T18:51:15.555Z,1.90
2022-08-29T18:53:43.085Z,1.73
2022-08-29T18:56:10.632Z,2.10
2022-08-29T18:58:41.140Z,2.58
2022-08-29T19:01:11.184Z,3.33
2022-08-29T19:03:38.631Z,4.30
2022-08-29T19:06:06.684Z,4.53
2022-08-29T19:08:34.277Z,4.30
2022-08-29T19:11:01.688Z,4.20
2022-08-29T19:13:30.896Z,3.75
2022-08-29T19:16:00.499Z,3.00
2022-08-29T19:18:28.375Z,2.58
2022-08-29T19:21:06.175Z,2.20
2022-08-29T19:23:36.297Z,1.98
2022-08-29T19:26:07.956Z,2.30
2022-08-29T19:28:36.537Z,2.67
2022-08-29T19:31:06.488Z,2.78
2022-08-29T19:33:34.964Z,2.85
2022-08-29T19:36:04.047Z,2.50
2022-08-29T19:38:31.502Z,1.90
2022-08-29T19:40:59.915Z,1.70
2022-08-29T19:43:29.968Z,1.38
2022-08-29T19:45:59.140Z,1.10
2022-08-29T19:48:28.632Z,1.00
2022-08-29T19:50:57.677Z,1.13
2022-08-29T19:53:26.720Z,0.93
2022-08-29T19:55:55.294Z,1.10
2022-08-29T19:58:26.175Z,1.17
2022-08-29T20:00:59.297Z,1.15
2022-08-29T20:03:28.826Z,1.70
2022-08-29T20:05:59.397Z,1.77
2022-08-29T20:08:26.908Z,2.28
2022-08-29T20:10:56.678Z,2.72
2022-08-29T20:13:24.073Z,2.72
2022-08-29T20:15:56.036Z,3.10
2022-08-29T20:18:23.476Z,3.08
2022-08-29T20:20:52.407Z,3.28
2022-08-29T20:23:19.776Z,3.78
2022-08-29T20:25:47.336Z,3.42
2022-08-29T20:28:15.855Z,3.28
2022-08-29T20:30:43.748Z,2.70
2022-08-29T20:33:13.630Z,2.25
2022-08-29T20:35:58.620Z,1.73
2022-08-29T20:38:28.114Z,1.60
2022-08-29T20:40:55.575Z,1.48
2022-08-29T20:43:23.098Z,1.40
2022-08-29T20:45:50.613Z,1.67
2022-08-29T20:48:18.210Z,1.63
2022-08-29T20:50:45.612Z,1.85
2022-08-29T20:53:30.186Z,2.13
2022-08-29T20:56:00.863Z,2.22
2022-08-29T20:58:30.035Z,1.85
2022-08-29T21:00:58.149Z,1.90
2022-08-29T21:03:43.902Z,1.58
2022-08-29T21:06:11.679Z,1.60
2022-08-29T21:08:40.950Z,1.45
2022-08-29T21:11:10.204Z,1.27
2022-08-29T21:13:43.146Z,1.30
2022-08-29T21:16:11.135Z,1.25
2022-08-29T21:18:39.000Z,1.30
2022-08-29T21:21:06.745Z,1.25
2022-08-29T21:23:34.933Z,1.35
2022-08-29T21:26:03.138Z,1.38
2022-08-29T21:28:33.316Z,1.13
2022-08-29T21:31:04.939Z,1.13
2022-08-29T21:33:33.369Z,0.93
2022-08-29T21:36:01.537Z,1.00
2022-08-29T21:38:29.282Z,0.90
2022-08-29T21:40:58.578Z,0.90
2022-08-29T21:43:26.128Z,0.95
2022-08-29T21:45:54.859Z,0.90
2022-08-29T21:48:22.265Z,0.75
2022-08-29T21:50:55.319Z,0.80
2022-08-29T21:53:23.380Z,0.90
2022-08-29T21:55:50.814Z,0.75
2022-08-29T21:58:18.480Z,0.90
2022-08-29T22:00:45.951Z,0.80
2022-08-29T22:03:14.791Z,0.90
2022-08-29T22:05:43.984Z,1.00
2022-08-29T22:08:13.845Z,0.90
2022-08-29T22:10:42.331Z,0.90
2022-08-29T22:13:10.104Z,0.95
2022-08-29T22:15:55.479Z,1.10
2022-08-29T22:18:24.280Z,1.00
2022-08-29T22:20:52.844Z,1.00
2022-08-29T22:23:22.902Z,1.20
2022-08-29T22:25:50.772Z,1.20
2022-08-29T22:28:18.176Z,1.10
2022-08-29T22:30:45.570Z,1.20
2022-08-29T22:33:16.398Z,1.13
2022-08-29T22:35:45.663Z,1.25
2022-08-29T22:38:13.109Z,1.10
2022-08-29T22:40:40.664Z,0.93
2022-08-29T22:43:08.091Z,1.15
2022-08-29T22:45:35.503Z,1.10
2022-08-29T22:48:03.344Z,1.00
2022-08-29T22:50:30.853Z,1.58
2022-08-29T22:53:01.889Z,1.63
2022-08-29T22:57:57.763Z,1.60
2022-08-29T23:00:27.107Z,1.60
2022-08-29T23:02:54.956Z,1.42
2022-08-29T23:05:24.093Z,1.40
2022-08-29T23:07:51.737Z,1.20
2022-08-29T23:10:21.969Z,1.27
2022-08-29T23:12:49.683Z,1.25
2022-08-29T23:15:19.089Z,1.20
2022-08-29T23:17:46.483Z,1.30
2022-08-29T23:20:14.943Z,1.05
2022-08-29T23:22:43.067Z,1.00
2022-08-29T23:25:12.014Z,0.95
2022-08-29T23:27:41.196Z,1.00
2022-08-29T23:30:11.245Z,1.00
2022-08-29T23:32:38.899Z,0.70
2022-08-29T23:35:07.503Z,0.82
2022-08-29T23:37:35.440Z,0.90
2022-08-29T23:40:03.291Z,0.90
2022-08-29T23:42:32.075Z,0.98
2022-08-29T23:45:00.861Z,1.00
2022-08-29T23:47:28.397Z,1.25
2022-08-29T23:49:55.870Z,1.20
2022-08-29T23:52:23.301Z,1.30
2022-08-29T23:54:50.740Z,1.35
2022-08-29T23:57:18.149Z,1.30
